Time;durP1;ratioP1;P1;durP2;ratioP2;P2;SDS_P1;SDS_P2;PMS_P1;PMS_P2;Temp;Humidity;BMP_temperature;BMP_pressure;BME280_temperature;BME280_humidity;BME280_pressure;Samples;Min_cycle;Max_cycle;Signal;HPM_P1;HPM_P2
2023/03/26 00:00:16;;;;;;;3.63;2.60;;;;;;;;;;4938432;29;20411;-63
2023/03/26 00:02:42;;;;;;;6.13;2.77;;;;;;;;;;4937872;29;20472;-61
2023/03/26 00:05:09;;;;;;;4.57;2.27;;;;;;;;;;4938219;29;20479;-63
2023/03/26 00:07:35;;;;;;;8.90;2.87;;;;;;;;;;4938058;29;20416;-62
2023/03/26 00:10:02;;;;;;;6.53;1.83;;;;;;;;;;4938158;29;20436;-63
2023/03/26 00:12:30;;;;;;;4.40;2.00;;;;;;;;;;4937917;29;20420;-62
2023/03/26 00:14:56;;;;;;;14.53;10.50;;;;;;;;;;4937919;29;20826;-62
2023/03/26 00:17:22;;;;;;;5.43;1.87;;;;;;;;;;4938035;29;20460;-62
2023/03/26 00:19:48;;;;;;;6.03;1.90;;;;;;;;;;4937934;29;20439;-62
2023/03/26 00:22:15;;;;;;;4.50;1.97;;;;;;;;;;4937708;29;20506;-62
2023/03/26 00:24:44;;;;;;;9.80;2.53;;;;;;;;;;4937842;29;20776;-62
2023/03/26 00:27:11;;;;;;;5.27;1.80;;;;;;;;;;4937838;29;20499;-62
2023/03/26 00:29:38;;;;;;;7.77;2.20;;;;;;;;;;4937908;29;20483;-62
2023/03/26 00:32:05;;;;;;;4.10;2.00;;;;;;;;;;4937457;29;20417;-62
2023/03/26 00:34:33;;;;;;;5.43;1.73;;;;;;;;;;4937859;29;20450;-62
2023/03/26 00:37:01;;;;;;;3.47;1.90;;;;;;;;;;4937598;29;20464;-62
2023/03/26 00:39:34;;;;;;;7.67;1.90;;;;;;;;;;4937728;29;20803;-62
2023/03/26 00:42:05;;;;;;;2.10;2.00;;;;;;;;;;4937327;29;20478;-62
2023/03/26 00:44:31;;;;;;;13.93;2.33;;;;;;;;;;4937631;29;20421;-62
2023/03/26 00:46:57;;;;;;;2.50;1.50;;;;;;;;;;4937382;29;20421;-63
2023/03/26 00:49:25;;;;;;;5.70;2.00;;;;;;;;;;4936183;29;20432;-63
2023/03/26 00:51:51;;;;;;;2.77;1.80;;;;;;;;;;4937179;29;20455;-62
2023/03/26 00:54:18;;;;;;;3.13;1.80;;;;;;;;;;4935932;29;20452;-62
2023/03/26 00:56:46;;;;;;;9.70;2.60;;;;;;;;;;4937255;29;20428;-62
2023/03/26 00:59:12;;;;;;;4.13;1.80;;;;;;;;;;4937067;29;20471;-63
2023/03/26 01:01:38;;;;;;;1.93;1.77;;;;;;;;;;4936896;29;20452;-61
2023/03/26 01:04:25;;;;;;;6.17;1.90;;;;;;;;;;4937402;29;20413;-60
2023/03/26 01:06:53;;;;;;;7.53;1.80;;;;;;;;;;4937135;29;20537;-62
2023/03/26 01:09:20;;;;;;;4.40;1.83;;;;;;;;;;4937111;29;20553;-62
2023/03/26 01:11:47;;;;;;;3.23;2.03;;;;;;;;;;4937216;29;20424;-62
2023/03/26 01:14:17;;;;;;;10.00;1.63;;;;;;;;;;4936836;29;20416;-62
2023/03/26 01:16:50;;;;;;;4.40;2.30;;;;;;;;;;4936767;29;20490;-62
2023/03/26 01:19:16;;;;;;;3.13;1.70;;;;;;;;;;4935777;29;20439;-63
2023/03/26 01:21:42;;;;;;;3.67;1.70;;;;;;;;;;4937002;29;20476;-62
2023/03/26 01:24:09;;;;;;;5.73;1.63;;;;;;;;;;4936962;29;20468;-62
2023/03/26 01:26:49;;;;;;;11.00;2.77;;;;;;;;;;4936791;29;20420;-63
2023/03/26 01:29:20;;;;;;;6.03;1.90;;;;;;;;;;4936845;29;20432;-63
2023/03/26 01:31:49;;;;;;;9.63;2.60;;;;;;;;;;4936825;29;20464;-63
2023/03/26 01:34:48;;;;;;;10.60;2.50;;;;;;;;;;4936793;29;20420;-63
2023/03/26 01:37:19;;;;;;;6.37;1.93;;;;;;;;;;4945514;29;20444;-62
2023/03/26 01:40:05;;;;;;;4.83;2.07;;;;;;;;;;4936890;29;20416;-62
2023/03/26 01:42:58;;;;;;;5.83;1.90;;;;;;;;;;4936663;29;20456;-62
2023/03/26 01:45:27;;;;;;;6.93;2.50;;;;;;;;;;4949413;28;20926;-62
2023/03/26 01:47:54;;;;;;;10.40;2.63;;;;;;;;;;4936547;29;20448;-63
2023/03/26 01:50:23;;;;;;;5.20;2.10;;;;;;;;;;4936828;29;20476;-62
2023/03/26 01:52:49;;;;;;;6.80;2.20;;;;;;;;;;4936561;29;20915;-62
2023/03/26 01:55:15;;;;;;;3.57;2.07;;;;;;;;;;4936196;29;20483;-61
2023/03/26 01:57:50;;;;;;;6.73;2.23;;;;;;;;;;4936331;29;20420;-62
2023/03/26 02:00:29;;;;;;;9.40;2.30;;;;;;;;;;4935891;29;20420;-63
2023/03/26 02:03:01;;;;;;;7.17;2.17;;;;;;;;;;4935713;29;20499;-63
2023/03/26 02:05:42;;;;;;;4.83;1.90;;;;;;;;;;4936039;29;20895;-62
2023/03/26 02:08:15;;;;;;;9.33;2.50;;;;;;;;;;4936120;29;20444;-62
2023/03/26 02:10:43;;;;;;;10.07;2.33;;;;;;;;;;4936126;29;20397;-63
2023/03/26 02:13:13;;;;;;;5.60;2.00;;;;;;;;;;4935269;29;20428;-63
2023/03/26 02:15:40;;;;;;;3.13;2.10;;;;;;;;;;4935931;29;20423;-62
2023/03/26 02:18:09;;;;;;;7.70;2.53;;;;;;;;;;4935641;29;20467;-63
2023/03/26 02:20:36;;;;;;;6.53;1.90;;;;;;;;;;4935920;29;20401;-62
2023/03/26 02:23:02;;;;;;;4.40;2.23;;;;;;;;;;4935673;29;20487;-62
2023/03/26 02:25:28;;;;;;;7.80;2.00;;;;;;;;;;4935398;29;20408;-62
2023/03/26 02:27:55;;;;;;;7.90;2.00;;;;;;;;;;4935461;29;20416;-62
2023/03/26 02:30:28;;;;;;;6.73;2.33;;;;;;;;;;4935601;29;20784;-63
2023/03/26 02:32:57;;;;;;;14.77;2.63;;;;;;;;;;4935553;29;20923;-62
2023/03/26 02:35:26;;;;;;;5.27;2.17;;;;;;;;;;4935570;29;20919;-62
2023/03/26 02:37:52;;;;;;;7.03;2.50;;;;;;;;;;4935540;29;20975;-63
2023/03/26 02:40:20;;;;;;;3.40;2.10;;;;;;;;;;4935757;29;20440;-63
2023/03/26 02:42:46;;;;;;;8.70;1.93;;;;;;;;;;4935508;29;20522;-63
2023/03/26 02:45:12;;;;;;;4.83;2.37;;;;;;;;;;4935425;29;20471;-62
2023/03/26 02:47:38;;;;;;;9.00;2.50;;;;;;;;;;4935384;29;20412;-62
2023/03/26 02:50:04;;;;;;;9.50;3.47;;;;;;;;;;4935220;29;20455;-62
2023/03/26 02:52:32;;;;;;;4.90;2.00;;;;;;;;;;4935121;29;20432;-62
2023/03/26 02:54:58;;;;;;;6.50;2.53;;;;;;;;;;4935362;29;20792;-62
2023/03/26 02:57:25;;;;;;;6.50;2.53;;;;;;;;;;4935464;29;20417;-63
2023/03/26 02:59:51;;;;;;;4.97;2.43;;;;;;;;;;4935510;29;20491;-63
2023/03/26 03:02:18;;;;;;;8.60;3.03;;;;;;;;;;4934903;29;20483;-63
2023/03/26 03:04:44;;;;;;;5.67;2.23;;;;;;;;;;4935337;29;20423;-63
2023/03/26 03:07:13;;;;;;;5.83;2.33;;;;;;;;;;4935203;29;20416;-63
2023/03/26 03:09:39;;;;;;;6.43;2.40;;;;;;;;;;4935418;29;20805;-63
2023/03/26 03:12:05;;;;;;;4.63;2.17;;;;;;;;;;4935350;29;20479;-63
2023/03/26 03:14:31;;;;;;;7.47;2.73;;;;;;;;;;4935075;29;20917;-63
2023/03/26 03:16:57;;;;;;;6.10;2.10;;;;;;;;;;4935069;29;20471;-63
2023/03/26 03:19:23;;;;;;;5.80;2.60;;;;;;;;;;4935252;29;20443;-63
2023/03/26 03:21:49;;;;;;;6.50;2.00;;;;;;;;;;4935332;29;20466;-63
2023/03/26 03:24:17;;;;;;;6.70;2.53;;;;;;;;;;4934956;29;20420;-63
2023/03/26 03:26:44;;;;;;;9.30;3.23;;;;;;;;;;4939035;29;20412;-63
2023/03/26 03:29:11;;;;;;;13.97;2.50;;;;;;;;;;4939079;29;20416;-63
2023/03/26 03:31:37;;;;;;;4.80;2.20;;;;;;;;;;4938906;29;20448;-63
2023/03/26 03:34:03;;;;;;;4.57;1.63;;;;;;;;;;4938933;29;20845;-63
2023/03/26 03:36:31;;;;;;;2.50;1.80;;;;;;;;;;4938830;29;20531;-63
2023/03/26 03:39:01;;;;;;;52.50;30.37;;;;;;;;;;4939151;29;20424;-63
2023/03/26 03:41:27;;;;;;;13.60;6.90;;;;;;;;;;4938821;29;20935;-62
2023/03/26 03:43:53;;;;;;;10.30;3.20;;;;;;;;;;4938745;29;20844;-62
2023/03/26 03:46:19;;;;;;;10.10;2.47;;;;;;;;;;4938608;29;20447;-62
2023/03/26 03:48:48;;;;;;;9.50;2.03;;;;;;;;;;4938812;29;20431;-63
2023/03/26 03:51:14;;;;;;;6.77;1.97;;;;;;;;;;4938899;29;20511;-62
2023/03/26 03:53:44;;;;;;;10.13;2.53;;;;;;;;;;4938634;29;20393;-62
2023/03/26 03:56:13;;;;;;;3.27;1.70;;;;;;;;;;4939085;29;20396;-63
2023/03/26 03:58:39;;;;;;;13.53;2.37;;;;;;;;;;4938374;29;20503;-62
2023/03/26 04:01:06;;;;;;;7.60;2.90;;;;;;;;;;4938704;29;20479;-63
2023/03/26 04:03:37;;;;;;;7.33;2.27;;;;;;;;;;4938368;29;20483;-62
2023/03/26 04:06:05;;;;;;;8.40;1.97;;;;;;;;;;4938419;29;20415;-62
2023/03/26 04:08:31;;;;;;;8.50;3.00;;;;;;;;;;4938352;29;20444;-63
2023/03/26 04:10:57;;;;;;;9.93;2.67;;;;;;;;;;4938242;29;20443;-62
2023/03/26 04:13:23;;;;;;;4.60;1.57;;;;;;;;;;4936901;29;20463;-63
2023/03/26 04:15:50;;;;;;;7.53;2.00;;;;;;;;;;4938195;29;20423;-63
2023/03/26 04:18:15;;;;;;;6.50;2.60;;;;;;;;;;4938538;29;20464;-63
2023/03/26 04:20:46;;;;;;;6.40;2.10;;;;;;;;;;4938422;29;20447;-63
2023/03/26 04:23:13;;;;;;;5.50;1.73;;;;;;;;;;4938398;29;20452;-63
2023/03/26 04:25:40;;;;;;;12.13;2.60;;;;;;;;;;4938181;29;20432;-63
2023/03/26 04:28:07;;;;;;;4.10;2.00;;;;;;;;;;4938326;29;20518;-63
2023/03/26 04:30:33;;;;;;;6.00;2.20;;;;;;;;;;4938021;29;20905;-63
2023/03/26 04:33:05;;;;;;;15.97;2.53;;;;;;;;;;4938188;29;20409;-63
2023/03/26 04:35:34;;;;;;;4.40;1.97;;;;;;;;;;4936580;29;20420;-62
2023/03/26 04:38:05;;;;;;;11.30;3.00;;;;;;;;;;4935928;29;20550;-62
2023/03/26 04:40:33;;;;;;;12.27;5.17;;;;;;;;;;4938098;29;20460;-63
2023/03/26 04:43:01;;;;;;;7.37;3.50;;;;;;;;;;4937838;29;20486;-62
2023/03/26 04:45:29;;;;;;;16.77;5.33;;;;;;;;;;4937729;29;20444;-63
2023/03/26 04:47:55;;;;;;;28.80;18.70;;;;;;;;;;4937655;29;20439;-63
2023/03/26 04:50:21;;;;;;;10.00;6.77;;;;;;;;;;4937746;29;20489;-63
2023/03/26 04:52:47;;;;;;;5.80;2.00;;;;;;;;;;4937395;29;20426;-62
2023/03/26 04:55:23;;;;;;;4.57;2.00;;;;;;;;;;4935911;29;20431;-62
2023/03/26 04:57:52;;;;;;;6.33;1.80;;;;;;;;;;4937465;29;20404;-63
2023/03/26 05:00:19;;;;;;;5.37;1.60;;;;;;;;;;4937450;29;20943;-62
2023/03/26 05:02:49;;;;;;;5.53;2.40;;;;;;;;;;4937334;29;20529;-62
2023/03/26 05:05:15;;;;;;;3.07;2.17;;;;;;;;;;4936358;29;20448;-63
2023/03/26 05:07:41;;;;;;;5.03;2.20;;;;;;;;;;4937193;29;20424;-63
2023/03/26 05:10:07;;;;;;;4.07;1.40;;;;;;;;;;4937151;29;20811;-63
2023/03/26 05:12:36;;;;;;;4.83;1.30;;;;;;;;;;4937364;29;20415;-63
2023/03/26 05:15:02;;;;;;;2.07;1.40;;;;;;;;;;4936923;29;20440;-62
2023/03/26 05:17:29;;;;;;;3.37;1.20;;;;;;;;;;4936873;29;20420;-62
2023/03/26 05:19:56;;;;;;;1.90;1.20;;;;;;;;;;4936556;29;20424;-63
2023/03/26 05:22:24;;;;;;;1.90;1.40;;;;;;;;;;4936674;29;20482;-62
2023/03/26 05:24:51;;;;;;;3.07;1.40;;;;;;;;;;4936802;29;20412;-62
2023/03/26 05:27:19;;;;;;;1.77;1.20;;;;;;;;;;4936488;29;20924;-62
2023/03/26 05:29:45;;;;;;;2.73;1.53;;;;;;;;;;4935421;29;20966;-63
2023/03/26 05:32:11;;;;;;;2.33;1.47;;;;;;;;;;4936578;29;20499;-62
2023/03/26 05:34:38;;;;;;;1.30;1.20;;;;;;;;;;4936729;29;20896;-63
2023/03/26 05:37:05;;;;;;;2.17;1.40;;;;;;;;;;4936474;29;20466;-62
2023/03/26 05:39:31;;;;;;;2.40;1.00;;;;;;;;;;4936735;29;20452;-62
2023/03/26 05:42:00;;;;;;;2.30;1.20;;;;;;;;;;4936569;29;20514;-62
2023/03/26 05:44:26;;;;;;;3.27;1.20;;;;;;;;;;4936630;29;20490;-62
2023/03/26 05:46:55;;;;;;;4.90;1.40;;;;;;;;;;4936507;29;20475;-64
2023/03/26 05:49:21;;;;;;;6.57;1.57;;;;;;;;;;4935514;29;20918;-63
2023/03/26 05:51:47;;;;;;;2.40;1.20;;;;;;;;;;4936269;29;20456;-62
2023/03/26 05:54:15;;;;;;;2.20;1.37;;;;;;;;;;4936229;29;20507;-62
2023/03/26 05:56:41;;;;;;;2.97;1.57;;;;;;;;;;4936278;29;20419;-62
2023/03/26 05:59:07;;;;;;;4.63;1.23;;;;;;;;;;4935908;29;20806;-62
2023/03/26 06:01:33;;;;;;;3.27;1.33;;;;;;;;;;4936063;29;20436;-62
2023/03/26 06:03:59;;;;;;;1.30;1.20;;;;;;;;;;4935840;29;20442;-62
2023/03/26 06:06:25;;;;;;;1.83;1.00;;;;;;;;;;4936333;29;20475;-62
2023/03/26 06:08:51;;;;;;;0.90;0.90;;;;;;;;;;4936012;29;20423;-62
2023/03/26 06:11:18;;;;;;;2.73;1.40;;;;;;;;;;4935995;29;20461;-62
2023/03/26 06:13:45;;;;;;;1.80;1.30;;;;;;;;;;4936239;29;20424;-62
2023/03/26 06:16:12;;;;;;;3.40;1.33;;;;;;;;;;4936197;29;20480;-62
2023/03/26 06:18:38;;;;;;;2.00;1.37;;;;;;;;;;4936421;29;20839;-62
2023/03/26 06:21:07;;;;;;;2.70;0.93;;;;;;;;;;4936168;29;20765;-62
2023/03/26 06:23:33;;;;;;;1.30;1.20;;;;;;;;;;4936524;29;20490;-62
2023/03/26 06:26:00;;;;;;;1.77;1.00;;;;;;;;;;4936236;29;20420;-62
2023/03/26 06:28:28;;;;;;;1.27;1.27;;;;;;;;;;4936249;29;20432;-62
2023/03/26 06:30:55;;;;;;;1.80;1.40;;;;;;;;;;4934360;29;20427;-61
2023/03/26 06:33:20;;;;;;;1.23;1.00;;;;;;;;;;4935556;29;20498;-62
2023/03/26 06:35:46;;;;;;;1.43;1.13;;;;;;;;;;4935581;29;20912;-62
2023/03/26 06:38:13;;;;;;;2.50;1.40;;;;;;;;;;4935528;29;20781;-62
2023/03/26 06:40:39;;;;;;;1.43;1.23;;;;;;;;;;4934413;29;20927;-62
2023/03/26 06:43:05;;;;;;;1.67;1.40;;;;;;;;;;4935372;29;20468;-61
2023/03/26 06:45:32;;;;;;;2.00;1.90;;;;;;;;;;4933979;29;20497;-62
2023/03/26 06:47:58;;;;;;;5.30;1.77;;;;;;;;;;4935381;29;20412;-61
2023/03/26 06:50:25;;;;;;;6.73;2.03;;;;;;;;;;4935363;29;20447;-61
2023/03/26 06:52:52;;;;;;;2.20;1.27;;;;;;;;;;4935287;29;20416;-62
2023/03/26 06:55:19;;;;;;;2.03;1.73;;;;;;;;;;4935264;29;20416;-62
2023/03/26 06:57:47;;;;;;;8.53;7.40;;;;;;;;;;4935279;29;20416;-62
2023/03/26 07:00:16;;;;;;;4.73;4.33;;;;;;;;;;4934614;29;20428;-61
2023/03/26 07:02:42;;;;;;;1.90;1.40;;;;;;;;;;4935115;29;20562;-62
2023/03/26 07:05:08;;;;;;;1.90;1.40;;;;;;;;;;4934937;29;20412;-62
2023/03/26 07:07:37;;;;;;;1.47;1.37;;;;;;;;;;4935257;29;20491;-62
2023/03/26 07:10:06;;;;;;;1.17;1.07;;;;;;;;;;4935016;29;20419;-62
2023/03/26 07:12:32;;;;;;;1.67;1.00;;;;;;;;;;4935125;29;20942;-62
2023/03/26 07:15:03;;;;;;;4.07;1.40;;;;;;;;;;4935274;29;20412;-62
2023/03/26 07:17:29;;;;;;;1.73;1.23;;;;;;;;;;4934046;29;20816;-62
2023/03/26 07:19:57;;;;;;;1.43;1.33;;;;;;;;;;4935126;29;20424;-63
2023/03/26 07:22:23;;;;;;;2.20;0.90;;;;;;;;;;4935131;29;20460;-62
2023/03/26 07:24:50;;;;;;;2.23;1.53;;;;;;;;;;4935084;29;20416;-62
2023/03/26 07:27:22;;;;;;;1.33;1.33;;;;;;;;;;4935292;29;20863;-63
2023/03/26 07:29:57;;;;;;;273.73;26.00;;;;;;;;;;4934943;29;20439;-63
2023/03/26 07:32:38;;;;;;;20.40;6.30;;;;;;;;;;4935378;29;20900;-62
2023/03/26 07:35:18;;;;;;;6.37;4.17;;;;;;;;;;4934833;29;20446;-62
2023/03/26 07:37:58;;;;;;;70.87;38.83;;;;;;;;;;4934768;29;20427;-62
2023/03/26 07:40:38;;;;;;;2.20;2.00;;;;;;;;;;4934680;29;20440;-62
2023/03/26 07:43:10;;;;;;;2.60;1.80;;;;;;;;;;4934983;29;20467;-62
2023/03/26 07:45:40;;;;;;;1.70;1.60;;;;;;;;;;4934680;29;20416;-62
2023/03/26 07:48:15;;;;;;;6.00;1.97;;;;;;;;;;4934764;29;20420;-62
2023/03/26 07:50:41;;;;;;;1.60;1.50;;;;;;;;;;4934987;29;20419;-62
2023/03/26 07:53:08;;;;;;;1.50;1.40;;;;;;;;;;4935022;29;20787;-62
2023/03/26 07:55:36;;;;;;;2.70;1.60;;;;;;;;;;4934625;29;20420;-62
2023/03/26 07:58:33;;;;;;;1.87;1.77;;;;;;;;;;4934727;29;20458;-62
2023/03/26 08:01:04;;;;;;;2.83;2.13;;;;;;;;;;4934643;29;20404;-62
2023/03/26 08:03:30;;;;;;;2.80;1.60;;;;;;;;;;4934334;29;20471;-62
2023/03/26 08:06:13;;;;;;;3.60;2.13;;;;;;;;;;4934466;29;20416;-62
2023/03/26 08:08:39;;;;;;;1.53;1.43;;;;;;;;;;4933184;29;20951;-63
2023/03/26 08:11:17;;;;;;;2.23;1.70;;;;;;;;;;4934787;29;20422;-62
2023/03/26 08:13:49;;;;;;;3.60;1.27;;;;;;;;;;4937876;29;20918;-62
2023/03/26 08:16:23;;;;;;;1.87;1.00;;;;;;;;;;4937892;29;20424;-62
2023/03/26 08:18:53;;;;;;;1.00;1.00;;;;;;;;;;4937947;29;20416;-62
2023/03/26 08:21:25;;;;;;;2.47;2.27;;;;;;;;;;4937718;29;20421;-62
2023/03/26 08:23:54;;;;;;;2.70;2.40;;;;;;;;;;4938093;29;20452;-62
2023/03/26 08:26:40;;;;;;;1.63;1.53;;;;;;;;;;4937896;29;20472;-62
2023/03/26 08:29:26;;;;;;;1.60;1.50;;;;;;;;;;4938132;29;20873;-62
2023/03/26 08:31:52;;;;;;;3.70;1.50;;;;;;;;;;4938070;29;20420;-62
2023/03/26 08:34:20;;;;;;;1.73;1.63;;;;;;;;;;4937966;29;20420;-63
2023/03/26 08:36:46;;;;;;;4.73;1.63;;;;;;;;;;4937868;29;20436;-61
2023/03/26 08:39:13;;;;;;;4.13;1.53;;;;;;;;;;4937985;29;20448;-62
2023/03/26 08:41:53;;;;;;;1.70;1.60;;;;;;;;;;4937885;29;20950;-62
2023/03/26 08:44:26;;;;;;;1.97;1.87;;;;;;;;;;4937872;29;20412;-62
2023/03/26 08:47:10;;;;;;;1.50;1.40;;;;;;;;;;4937829;29;20415;-63
2023/03/26 08:49:55;;;;;;;1.83;1.73;;;;;;;;;;4937567;29;20400;-62
2023/03/26 08:52:33;;;;;;;1.93;1.37;;;;;;;;;;4937737;29;20416;-63
2023/03/26 08:55:05;;;;;;;2.30;1.50;;;;;;;;;;4937557;29;20408;-62
2023/03/26 08:57:31;;;;;;;1.73;1.43;;;;;;;;;;4937592;29;20411;-63
2023/03/26 09:00:04;;;;;;;4.63;1.83;;;;;;;;;;4937718;29;20412;-62
2023/03/26 09:02:39;;;;;;;2.00;1.37;;;;;;;;;;4936077;29;20502;-63
2023/03/26 09:05:25;;;;;;;3.43;1.70;;;;;;;;;;4937454;29;20411;-62
2023/03/26 09:07:54;;;;;;;1.40;1.30;;;;;;;;;;4937561;29;20765;-63
2023/03/26 09:10:33;;;;;;;2.93;1.50;;;;;;;;;;4937687;29;20440;-62
2023/03/26 09:13:17;;;;;;;3.53;1.40;;;;;;;;;;4937574;29;20413;-63
2023/03/26 09:15:55;;;;;;;2.10;1.43;;;;;;;;;;4937162;29;20488;-62
2023/03/26 09:18:47;;;;;;;1.77;1.67;;;;;;;;;;4937307;29;20538;-62
2023/03/26 09:21:24;;;;;;;3.23;1.80;;;;;;;;;;4937411;29;20452;-62
2023/03/26 09:24:13;;;;;;;3.47;3.17;;;;;;;;;;4936508;29;20553;-63
2023/03/26 09:26:46;;;;;;;4.60;1.77;;;;;;;;;;4936597;29;20440;-62
2023/03/26 09:29:15;;;;;;;2.53;1.20;;;;;;;;;;4936974;29;20863;-63
2023/03/26 09:31:56;;;;;;;3.30;1.20;;;;;;;;;;4936426;29;20876;-63
2023/03/26 09:34:41;;;;;;;2.30;1.37;;;;;;;;;;4936903;29;20420;-63
2023/03/26 09:37:45;;;;;;;1.77;1.43;;;;;;;;;;4935933;29;20436;-63
2023/03/26 09:40:19;;;;;;;3.40;1.10;;;;;;;;;;4971791;28;20418;-63
2023/03/26 09:42:54;;;;;;;1.70;1.03;;;;;;;;;;4972711;28;20493;-64
2023/03/26 09:45:42;;;;;;;1.87;1.07;;;;;;;;;;4951728;28;20967;-63
2023/03/26 09:48:30;;;;;;;1.63;1.30;;;;;;;;;;4936664;29;20524;-63
2023/03/26 09:51:02;;;;;;;1.70;1.60;;;;;;;;;;4936551;29;20433;-63
2023/03/26 09:53:43;;;;;;;4.03;1.40;;;;;;;;;;4936666;29;20455;-63
2023/03/26 09:56:11;;;;;;;3.23;1.40;;;;;;;;;;4936382;29;20503;-63
2023/03/26 09:58:37;;;;;;;2.23;1.23;;;;;;;;;;4936605;29;20971;-63
2023/03/26 10:01:11;;;;;;;2.13;1.37;;;;;;;;;;4936456;29;20449;-63
2023/03/26 10:03:40;;;;;;;1.20;1.10;;;;;;;;;;4936998;29;20564;-63
2023/03/26 10:06:06;;;;;;;1.63;1.43;;;;;;;;;;4936437;29;20436;-63
2023/03/26 10:08:37;;;;;;;4.97;1.00;;;;;;;;;;4936209;29;20439;-63
2023/03/26 10:11:12;;;;;;;2.00;1.00;;;;;;;;;;4935707;29;20799;-63
2023/03/26 10:13:42;;;;;;;0.83;0.60;;;;;;;;;;4936080;29;20414;-63
2023/03/26 10:16:11;;;;;;;1.43;1.10;;;;;;;;;;4936043;29;21046;-64
2023/03/26 10:18:37;;;;;;;1.43;1.10;;;;;;;;;;4935979;29;20425;-65
2023/03/26 10:21:03;;;;;;;0.70;0.70;;;;;;;;;;4936074;29;20400;-64
2023/03/26 10:23:32;;;;;;;1.83;1.40;;;;;;;;;;4934848;29;20847;-63
2023/03/26 10:26:07;;;;;;;1.33;0.80;;;;;;;;;;4935923;29;20409;-63
2023/03/26 10:28:46;;;;;;;1.23;0.73;;;;;;;;;;4936057;29;20884;-64
2023/03/26 10:31:22;;;;;;;15.93;9.00;;;;;;;;;;4935782;29;20503;-64
2023/03/26 10:33:54;;;;;;;1.90;1.10;;;;;;;;;;4935926;29;20833;-63
2023/03/26 10:36:20;;;;;;;1.17;1.07;;;;;;;;;;4935399;29;20460;-63
2023/03/26 10:38:49;;;;;;;4.87;0.90;;;;;;;;;;4935946;29;20476;-63
2023/03/26 10:41:21;;;;;;;1.50;1.27;;;;;;;;;;4935684;29;20444;-63
2023/03/26 10:43:59;;;;;;;1.70;1.20;;;;;;;;;;4935575;29;20566;-63
2023/03/26 10:46:37;;;;;;;4.13;1.00;;;;;;;;;;4935697;29;20455;-63
2023/03/26 10:49:22;;;;;;;3.17;1.37;;;;;;;;;;4935292;29;20420;-63
2023/03/26 10:52:09;;;;;;;3.70;1.27;;;;;;;;;;4935361;29;20940;-63
2023/03/26 10:54:53;;;;;;;3.37;1.00;;;;;;;;;;4935401;29;20474;-65
2023/03/26 10:57:31;;;;;;;1.20;1.17;;;;;;;;;;4935371;29;20436;-64
2023/03/26 11:00:00;;;;;;;1.60;1.00;;;;;;;;;;4935292;29;20919;-63
2023/03/26 11:02:28;;;;;;;1.55;0.93;;;;;;;;;;4935273;29;20460;-64
2023/03/26 11:04:54;;;;;;;1.40;1.03;;;;;;;;;;4935591;29;20195;-64
2023/03/26 11:07:20;;;;;;;1.33;1.10;;;;;;;;;;4935456;29;20437;-64
2023/03/26 11:09:46;;;;;;;1.47;1.10;;;;;;;;;;4935623;29;20449;-64
2023/03/26 11:12:18;;;;;;;4.00;1.20;;;;;;;;;;4935764;29;20450;-63
2023/03/26 11:15:00;;;;;;;2.10;1.30;;;;;;;;;;4935531;29;20449;-64
2023/03/26 11:17:46;;;;;;;1.17;1.07;;;;;;;;;;4935671;29;20786;-64
2023/03/26 11:20:12;;;;;;;1.10;1.00;;;;;;;;;;4935258;29;20570;-64
2023/03/26 11:22:41;;;;;;;2.20;0.90;;;;;;;;;;4935155;29;20600;-64
2023/03/26 11:25:19;;;;;;;1.27;1.10;;;;;;;;;;4935736;29;20419;-64
2023/03/26 11:27:48;;;;;;;1.77;1.10;;;;;;;;;;4935004;29;20757;-64
2023/03/26 11:30:36;;;;;;;2.93;1.07;;;;;;;;;;4935129;29;20435;-64
2023/03/26 11:33:05;;;;;;;3.07;1.47;;;;;;;;;;4934998;29;20457;-64
2023/03/26 11:35:35;;;;;;;1.57;0.93;;;;;;;;;;4934953;29;20497;-64
2023/03/26 11:38:03;;;;;;;2.30;1.00;;;;;;;;;;4935147;29;20955;-64
2023/03/26 11:40:33;;;;;;;1.00;0.90;;;;;;;;;;4934969;29;20418;-65
2023/03/26 11:43:02;;;;;;;1.20;1.07;;;;;;;;;;4934947;29;20468;-63
2023/03/26 11:45:32;;;;;;;0.60;0.60;;;;;;;;;;4935014;29;20417;-64
2023/03/26 11:48:06;;;;;;;0.60;0.60;;;;;;;;;;4937254;29;20419;-64
2023/03/26 11:50:35;;;;;;;1.00;0.80;;;;;;;;;;4938614;29;20820;-64
2023/03/26 11:53:10;;;;;;;2.93;0.73;;;;;;;;;;4938217;29;20420;-63
2023/03/26 11:55:39;;;;;;;0.77;0.60;;;;;;;;;;4938663;29;20424;-64
2023/03/26 11:58:11;;;;;;;0.90;0.50;;;;;;;;;;4937153;29;21026;-63
2023/03/26 12:00:39;;;;;;;3.47;0.70;;;;;;;;;;4938358;29;20491;-64
2023/03/26 12:03:14;;;;;;;3.27;2.30;;;;;;;;;;4938237;29;20548;-64
2023/03/26 12:05:47;;;;;;;1.27;0.90;;;;;;;;;;4938447;29;20415;-64
2023/03/26 12:08:30;;;;;;;2.10;0.57;;;;;;;;;;4937815;29;20412;-64
2023/03/26 12:11:02;;;;;;;0.63;0.63;;;;;;;;;;4938444;29;20911;-63
2023/03/26 12:13:38;;;;;;;2.53;0.60;;;;;;;;;;4938161;29;20435;-63
2023/03/26 12:16:10;;;;;;;0.67;0.67;;;;;;;;;;4938135;29;20519;-63
2023/03/26 12:18:37;;;;;;;1.53;0.70;;;;;;;;;;4938160;29;20784;-63
2023/03/26 12:21:03;;;;;;;7.60;0.97;;;;;;;;;;4938000;29;20408;-63
2023/03/26 12:23:35;;;;;;;1.27;0.80;;;;;;;;;;4937804;29;20480;-64
2023/03/26 12:26:12;;;;;;;2.03;1.03;;;;;;;;;;4937580;29;20465;-64
2023/03/26 12:28:43;;;;;;;2.20;0.70;;;;;;;;;;4937895;29;20440;-65
2023/03/26 12:31:11;;;;;;;2.30;0.87;;;;;;;;;;4938019;29;20420;-65
2023/03/26 12:33:37;;;;;;;5.10;0.93;;;;;;;;;;4937832;29;20448;-65
2023/03/26 12:36:25;;;;;;;0.80;0.70;;;;;;;;;;4937753;29;20455;-64
2023/03/26 12:38:51;;;;;;;2.97;1.33;;;;;;;;;;4937671;29;20436;-65
2023/03/26 12:41:30;;;;;;;1.00;1.00;;;;;;;;;;4937709;29;20427;-64
2023/03/26 12:43:56;;;;;;;1.10;1.00;;;;;;;;;;4937393;29;20536;-64
2023/03/26 12:46:32;;;;;;;3.60;1.20;;;;;;;;;;4937992;29;20419;-64
2023/03/26 12:49:05;;;;;;;2.97;1.07;;;;;;;;;;4937848;29;20464;-64
2023/03/26 12:51:39;;;;;;;0.80;0.80;;;;;;;;;;4937472;29;20416;-64
2023/03/26 12:54:23;;;;;;;1.60;1.00;;;;;;;;;;4937470;29;20452;-66
2023/03/26 12:56:49;;;;;;;4.67;1.20;;;;;;;;;;4937522;29;20430;-65
2023/03/26 12:59:32;;;;;;;4.17;1.07;;;;;;;;;;4936970;29;20530;-64
2023/03/26 13:02:11;;;;;;;2.40;1.10;;;;;;;;;;4936072;29;20519;-64
2023/03/26 13:04:43;;;;;;;4.33;0.93;;;;;;;;;;4937741;29;20859;-63
2023/03/26 13:07:20;;;;;;;5.40;1.07;;;;;;;;;;4937414;29;20511;-64
2023/03/26 13:10:07;;;;;;;2.00;1.00;;;;;;;;;;4937011;29;20420;-64
2023/03/26 13:12:42;;;;;;;1.60;1.00;;;;;;;;;;4936997;29;20430;-64
2023/03/26 13:15:21;;;;;;;2.23;1.40;;;;;;;;;;4937039;29;20444;-64
2023/03/26 13:17:49;;;;;;;4.43;1.40;;;;;;;;;;4936306;29;20448;-64
2023/03/26 13:20:17;;;;;;;3.47;1.10;;;;;;;;;;4937093;29;20412;-65
2023/03/26 13:22:56;;;;;;;3.73;1.10;;;;;;;;;;4936907;29;20938;-65
2023/03/26 13:25:28;;;;;;;4.03;1.67;;;;;;;;;;4937053;29;20412;-65
2023/03/26 13:27:54;;;;;;;3.33;1.23;;;;;;;;;;4936823;29;20923;-72
2023/03/26 13:30:22;;;;;;;1.93;1.10;;;;;;;;;;4935864;29;20409;-65
2023/03/26 13:33:09;;;;;;;2.43;1.40;;;;;;;;;;4935513;29;20428;-65
2023/03/26 13:35:39;;;;;;;2.00;1.50;;;;;;;;;;4945191;28;20432;-65
2023/03/26 13:38:05;;;;;;;3.27;1.10;;;;;;;;;;4936545;29;20455;-65
2023/03/26 13:41:00;;;;;;;3.60;1.40;;;;;;;;;;4936809;29;20444;-65
2023/03/26 13:43:36;;;;;;;2.60;1.17;;;;;;;;;;4951322;29;20498;-66
2023/03/26 13:46:08;;;;;;;1.60;1.50;;;;;;;;;;4936892;29;20412;-65
2023/03/26 13:48:40;;;;;;;0.90;0.90;;;;;;;;;;4936918;29;20511;-65
2023/03/26 13:51:12;;;;;;;1.80;1.27;;;;;;;;;;4936971;29;20780;-64
2023/03/26 13:53:43;;;;;;;7.87;1.90;;;;;;;;;;4936693;29;20455;-63
2023/03/26 13:56:11;;;;;;;2.97;0.70;;;;;;;;;;4936544;29;20591;-65
2023/03/26 13:58:46;;;;;;;1.17;0.87;;;;;;;;;;4936280;29;20444;-65
2023/03/26 14:01:18;;;;;;;1.87;0.67;;;;;;;;;;4936760;29;20412;-65
2023/03/26 14:04:03;;;;;;;1.27;0.60;;;;;;;;;;4936417;29;20480;-66
2023/03/26 14:06:45;;;;;;;1.17;0.60;;;;;;;;;;4936295;29;20535;-65
2023/03/26 14:09:18;;;;;;;0.40;0.40;;;;;;;;;;4935519;29;20519;-65
2023/03/26 14:11:50;;;;;;;0.53;0.53;;;;;;;;;;4935852;29;20956;-65
2023/03/26 14:14:18;;;;;;;1.00;0.70;;;;;;;;;;4935685;29;20412;-65
2023/03/26 14:16:49;;;;;;;0.40;0.40;;;;;;;;;;4935499;29;20416;-66
2023/03/26 14:19:36;;;;;;;1.43;0.60;;;;;;;;;;4935852;29;20443;-65
2023/03/26 14:22:17;;;;;;;0.50;0.50;;;;;;;;;;4934332;29;20428;-65
2023/03/26 14:25:01;;;;;;;0.40;0.40;;;;;;;;;;4935635;29;20754;-65
2023/03/26 14:27:27;;;;;;;1.10;0.60;;;;;;;;;;4935536;29;20423;-65
2023/03/26 14:30:11;;;;;;;0.60;0.50;;;;;;;;;;4935638;29;20413;-65
2023/03/26 14:32:40;;;;;;;0.40;0.40;;;;;;;;;;4935622;29;20447;-66
2023/03/26 14:35:25;;;;;;;1.27;0.60;;;;;;;;;;4935683;29;20609;-66
2023/03/26 14:38:12;;;;;;;0.40;0.40;;;;;;;;;;4935771;29;20830;-66
2023/03/26 14:40:57;;;;;;;0.43;0.43;;;;;;;;;;4935357;29;20920;-65
2023/03/26 14:43:25;;;;;;;0.40;0.40;;;;;;;;;;4935423;29;20495;-66
2023/03/26 14:46:00;;;;;;;0.60;0.60;;;;;;;;;;4935270;29;20495;-65
2023/03/26 14:48:38;;;;;;;1.13;1.13;;;;;;;;;;4935338;29;20495;-65
2023/03/26 14:51:04;;;;;;;1.77;0.70;;;;;;;;;;4935464;29;20412;-65
2023/03/26 14:53:35;;;;;;;0.90;0.90;;;;;;;;;;4935428;29;20853;-65
2023/03/26 14:56:13;;;;;;;0.77;0.77;;;;;;;;;;4935429;29;20416;-65
2023/03/26 14:58:49;;;;;;;0.80;0.80;;;;;;;;;;4935097;29;20420;-65
2023/03/26 15:01:23;;;;;;;0.70;0.70;;;;;;;;;;4934650;29;20911;-65
2023/03/26 15:03:52;;;;;;;0.70;0.70;;;;;;;;;;4935294;29;20904;-66